sensor_id;sensor_type;location;lat;lon;timestamp;P1;durP1;ratioP1;P2;durP2;ratioP2
68700;SDS011;55682;51.114;5.882;2023-04-24T00:00:16;4.80;;;4.80;;
68700;SDS011;55682;51.114;5.882;2023-04-24T00:02:43;5.40;;;5.40;;
68700;SDS011;55682;51.114;5.882;2023-04-24T00:05:16;6.19;;;6.19;;
68700;SDS011;55682;51.114;5.882;2023-04-24T00:07:43;5.74;;;5.74;;
68700;SDS011;55682;51.114;5.882;2023-04-24T00:10:10;6.30;;;6.30;;
68700;SDS011;55682;51.114;5.882;2023-04-24T00:12:37;5.91;;;5.91;;
68700;SDS011;55682;51.114;5.882;2023-04-24T00:15:04;6.58;;;6.58;;
68700;SDS011;55682;51.114;5.882;2023-04-24T00:17:30;6.66;;;6.66;;
68700;SDS011;55682;51.114;5.882;2023-04-24T00:19:56;6.81;;;6.81;;
68700;SDS011;55682;51.114;5.882;2023-04-24T00:22:27;6.21;;;6.21;;
68700;SDS011;55682;51.114;5.882;2023-04-24T00:24:53;6.07;;;6.07;;
68700;SDS011;55682;51.114;5.882;2023-04-24T00:27:20;6.11;;;6.11;;
68700;SDS011;55682;51.114;5.882;2023-04-24T00:29:46;6.16;;;6.16;;
68700;SDS011;55682;51.114;5.882;2023-04-24T00:32:12;6.51;;;6.51;;
68700;SDS011;55682;51.114;5.882;2023-04-24T00:34:39;6.24;;;6.24;;
68700;SDS011;55682;51.114;5.882;2023-04-24T00:37:05;6.35;;;6.35;;
68700;SDS011;55682;51.114;5.882;2023-04-24T00:39:31;6.29;;;6.29;;
68700;SDS011;55682;51.114;5.882;2023-04-24T00:41:57;6.36;;;6.36;;
68700;SDS011;55682;51.114;5.882;2023-04-24T00:44:23;5.83;;;5.83;;
68700;SDS011;55682;51.114;5.882;2023-04-24T00:46:49;6.66;;;6.66;;
68700;SDS011;55682;51.114;5.882;2023-04-24T00:49:19;6.41;;;6.41;;
68700;SDS011;55682;51.114;5.882;2023-04-24T00:51:49;6.73;;;6.72;;
68700;SDS011;55682;51.114;5.882;2023-04-24T00:54:16;7.43;;;7.43;;
68700;SDS011;55682;51.114;5.882;2023-04-24T00:56:43;7.34;;;7.34;;
68700;SDS011;55682;51.114;5.882;2023-04-24T00:59:13;7.47;;;7.47;;
68700;SDS011;55682;51.114;5.882;2023-04-24T01:01:42;8.29;;;8.28;;
68700;SDS011;55682;51.114;5.882;2023-04-24T01:04:10;7.75;;;7.74;;
68700;SDS011;55682;51.114;5.882;2023-04-24T01:06:40;7.27;;;7.27;;
68700;SDS011;55682;51.114;5.882;2023-04-24T01:09:10;8.28;;;8.28;;
68700;SDS011;55682;51.114;5.882;2023-04-24T01:11:37;7.93;;;7.93;;
68700;SDS011;55682;51.114;5.882;2023-04-24T01:14:04;8.45;;;8.44;;
68700;SDS011;55682;51.114;5.882;2023-04-24T01:16:30;8.18;;;8.18;;
68700;SDS011;55682;51.114;5.882;2023-04-24T01:18:55;8.98;;;8.98;;
68700;SDS011;55682;51.114;5.882;2023-04-24T01:21:21;8.70;;;8.70;;
68700;SDS011;55682;51.114;5.882;2023-04-24T01:23:52;8.94;;;8.92;;
68700;SDS011;55682;51.114;5.882;2023-04-24T01:26:18;9.60;;;9.55;;
68700;SDS011;55682;51.114;5.882;2023-04-24T01:28:45;9.92;;;9.89;;
68700;SDS011;55682;51.114;5.882;2023-04-24T01:31:11;9.92;;;9.91;;
68700;SDS011;55682;51.114;5.882;2023-04-24T01:33:37;8.88;;;8.83;;
68700;SDS011;55682;51.114;5.882;2023-04-24T01:36:03;9.61;;;9.57;;
68700;SDS011;55682;51.114;5.882;2023-04-24T01:38:29;11.30;;;11.21;;
68700;SDS011;55682;51.114;5.882;2023-04-24T01:40:55;11.16;;;11.07;;
68700;SDS011;55682;51.114;5.882;2023-04-24T01:43:21;10.22;;;10.22;;
68700;SDS011;55682;51.114;5.882;2023-04-24T01:45:47;10.62;;;10.62;;
68700;SDS011;55682;51.114;5.882;2023-04-24T01:48:12;11.05;;;11.04;;
68700;SDS011;55682;51.114;5.882;2023-04-24T01:50:38;10.65;;;10.65;;
68700;SDS011;55682;51.114;5.882;2023-04-24T01:53:04;10.86;;;10.86;;
68700;SDS011;55682;51.114;5.882;2023-04-24T01:55:30;10.66;;;10.66;;
68700;SDS011;55682;51.114;5.882;2023-04-24T01:57:55;10.12;;;10.12;;
68700;SDS011;55682;51.114;5.882;2023-04-24T02:00:21;10.55;;;10.55;;
68700;SDS011;55682;51.114;5.882;2023-04-24T02:02:47;10.79;;;10.79;;
68700;SDS011;55682;51.114;5.882;2023-04-24T02:05:13;9.97;;;9.97;;
68700;SDS011;55682;51.114;5.882;2023-04-24T02:07:38;11.25;;;11.25;;
68700;SDS011;55682;51.114;5.882;2023-04-24T02:10:05;11.43;;;11.43;;
68700;SDS011;55682;51.114;5.882;2023-04-24T02:12:31;10.83;;;10.83;;
68700;SDS011;55682;51.114;5.882;2023-04-24T02:14:57;11.13;;;11.10;;
68700;SDS011;55682;51.114;5.882;2023-04-24T02:17:23;10.55;;;10.54;;
68700;SDS011;55682;51.114;5.882;2023-04-24T02:19:49;10.48;;;10.48;;
68700;SDS011;55682;51.114;5.882;2023-04-24T02:22:15;10.73;;;10.66;;
68700;SDS011;55682;51.114;5.882;2023-04-24T02:24:41;11.00;;;10.93;;
68700;SDS011;55682;51.114;5.882;2023-04-24T02:27:07;9.44;;;9.40;;
68700;SDS011;55682;51.114;5.882;2023-04-24T02:29:32;10.30;;;10.27;;
68700;SDS011;55682;51.114;5.882;2023-04-24T02:31:58;10.08;;;10.00;;
68700;SDS011;55682;51.114;5.882;2023-04-24T02:34:24;10.14;;;10.14;;
68700;SDS011;55682;51.114;5.882;2023-04-24T02:36:50;9.72;;;9.72;;
68700;SDS011;55682;51.114;5.882;2023-04-24T02:39:15;10.20;;;10.20;;
68700;SDS011;55682;51.114;5.882;2023-04-24T02:41:44;10.49;;;10.49;;
68700;SDS011;55682;51.114;5.882;2023-04-24T02:44:09;9.70;;;9.70;;
68700;SDS011;55682;51.114;5.882;2023-04-24T02:46:35;10.22;;;10.22;;
68700;SDS011;55682;51.114;5.882;2023-04-24T02:49:01;10.93;;;10.93;;
68700;SDS011;55682;51.114;5.882;2023-04-24T02:51:27;11.24;;;11.24;;
68700;SDS011;55682;51.114;5.882;2023-04-24T02:53:53;10.74;;;10.72;;
68700;SDS011;55682;51.114;5.882;2023-04-24T02:56:19;10.66;;;10.66;;
68700;SDS011;55682;51.114;5.882;2023-04-24T02:58:45;9.81;;;9.81;;
68700;SDS011;55682;51.114;5.882;2023-04-24T03:01:11;10.93;;;10.93;;
68700;SDS011;55682;51.114;5.882;2023-04-24T03:03:38;10.67;;;10.67;;
68700;SDS011;55682;51.114;5.882;2023-04-24T03:06:04;10.09;;;10.08;;
68700;SDS011;55682;51.114;5.882;2023-04-24T03:08:31;9.64;;;9.63;;
68700;SDS011;55682;51.114;5.882;2023-04-24T03:10:57;10.20;;;10.19;;
68700;SDS011;55682;51.114;5.882;2023-04-24T03:13:23;10.42;;;10.42;;
68700;SDS011;55682;51.114;5.882;2023-04-24T03:15:49;10.04;;;10.02;;
68700;SDS011;55682;51.114;5.882;2023-04-24T03:18:14;9.98;;;9.98;;
68700;SDS011;55682;51.114;5.882;2023-04-24T03:20:41;10.26;;;10.22;;
68700;SDS011;55682;51.114;5.882;2023-04-24T03:23:06;10.45;;;10.36;;
68700;SDS011;55682;51.114;5.882;2023-04-24T03:25:32;9.92;;;9.83;;
68700;SDS011;55682;51.114;5.882;2023-04-24T03:27:58;8.96;;;8.96;;
68700;SDS011;55682;51.114;5.882;2023-04-24T03:30:49;9.17;;;9.16;;
68700;SDS011;55682;51.114;5.882;2023-04-24T03:33:16;9.41;;;9.35;;
68700;SDS011;55682;51.114;5.882;2023-04-24T03:35:52;8.90;;;8.90;;
68700;SDS011;55682;51.114;5.882;2023-04-24T03:38:18;9.55;;;9.55;;
68700;SDS011;55682;51.114;5.882;2023-04-24T03:41:16;8.50;;;8.50;;
68700;SDS011;55682;51.114;5.882;2023-04-24T03:43:47;9.18;;;9.18;;
68700;SDS011;55682;51.114;5.882;2023-04-24T03:46:14;8.42;;;8.42;;
68700;SDS011;55682;51.114;5.882;2023-04-24T03:48:44;8.63;;;8.63;;
68700;SDS011;55682;51.114;5.882;2023-04-24T03:51:10;8.70;;;8.69;;
68700;SDS011;55682;51.114;5.882;2023-04-24T03:53:38;8.74;;;8.74;;
68700;SDS011;55682;51.114;5.882;2023-04-24T03:56:04;9.07;;;9.07;;
68700;SDS011;55682;51.114;5.882;2023-04-24T03:58:31;9.00;;;8.87;;
68700;SDS011;55682;51.114;5.882;2023-04-24T04:00:57;9.08;;;9.07;;
68700;SDS011;55682;51.114;5.882;2023-04-24T04:03:46;9.46;;;9.42;;
68700;SDS011;55682;51.114;5.882;2023-04-24T04:06:14;8.91;;;8.91;;
68700;SDS011;55682;51.114;5.882;2023-04-24T04:08:40;9.18;;;9.13;;
68700;SDS011;55682;51.114;5.882;2023-04-24T04:11:06;8.24;;;8.24;;
68700;SDS011;55682;51.114;5.882;2023-04-24T04:13:31;8.97;;;8.97;;
68700;SDS011;55682;51.114;5.882;2023-04-24T04:15:57;9.30;;;9.30;;
68700;SDS011;55682;51.114;5.882;2023-04-24T04:18:23;8.65;;;8.65;;
68700;SDS011;55682;51.114;5.882;2023-04-24T04:20:48;8.83;;;8.76;;
68700;SDS011;55682;51.114;5.882;2023-04-24T04:23:14;8.86;;;8.86;;
68700;SDS011;55682;51.114;5.882;2023-04-24T04:26:01;8.26;;;8.26;;
68700;SDS011;55682;51.114;5.882;2023-04-24T04:28:37;8.31;;;8.31;;
68700;SDS011;55682;51.114;5.882;2023-04-24T04:31:04;9.06;;;9.06;;
68700;SDS011;55682;51.114;5.882;2023-04-24T04:33:30;9.02;;;8.99;;
68700;SDS011;55682;51.114;5.882;2023-04-24T04:35:56;8.14;;;8.02;;
68700;SDS011;55682;51.114;5.882;2023-04-24T04:38:24;8.53;;;8.51;;
68700;SDS011;55682;51.114;5.882;2023-04-24T04:41:06;8.45;;;8.45;;
68700;SDS011;55682;51.114;5.882;2023-04-24T04:43:32;8.38;;;8.38;;
68700;SDS011;55682;51.114;5.882;2023-04-24T04:45:59;8.01;;;8.01;;
68700;SDS011;55682;51.114;5.882;2023-04-24T04:48:52;7.96;;;7.96;;
68700;SDS011;55682;51.114;5.882;2023-04-24T04:51:19;8.32;;;8.32;;
68700;SDS011;55682;51.114;5.882;2023-04-24T04:53:45;8.09;;;8.07;;
68700;SDS011;55682;51.114;5.882;2023-04-24T04:56:11;8.07;;;8.05;;
68700;SDS011;55682;51.114;5.882;2023-04-24T04:58:41;8.06;;;8.06;;
68700;SDS011;55682;51.114;5.882;2023-04-24T05:01:10;7.76;;;7.76;;
68700;SDS011;55682;51.114;5.882;2023-04-24T05:03:40;7.21;;;7.21;;
68700;SDS011;55682;51.114;5.882;2023-04-24T05:06:09;7.78;;;7.78;;
68700;SDS011;55682;51.114;5.882;2023-04-24T05:08:37;7.55;;;7.54;;
68700;SDS011;55682;51.114;5.882;2023-04-24T05:11:05;7.48;;;7.39;;
68700;SDS011;55682;51.114;5.882;2023-04-24T05:13:31;7.06;;;7.00;;
68700;SDS011;55682;51.114;5.882;2023-04-24T05:15:58;7.46;;;7.43;;
68700;SDS011;55682;51.114;5.882;2023-04-24T05:18:24;7.17;;;7.17;;
68700;SDS011;55682;51.114;5.882;2023-04-24T05:20:49;6.64;;;6.64;;
68700;SDS011;55682;51.114;5.882;2023-04-24T05:23:15;6.78;;;6.78;;
68700;SDS011;55682;51.114;5.882;2023-04-24T05:25:43;7.25;;;7.25;;
68700;SDS011;55682;51.114;5.882;2023-04-24T05:28:11;6.72;;;6.72;;
68700;SDS011;55682;51.114;5.882;2023-04-24T05:30:37;6.72;;;6.72;;
68700;SDS011;55682;51.114;5.882;2023-04-24T05:33:03;6.55;;;6.55;;
68700;SDS011;55682;51.114;5.882;2023-04-24T05:35:31;6.02;;;6.01;;
68700;SDS011;55682;51.114;5.882;2023-04-24T05:37:57;6.28;;;6.28;;
68700;SDS011;55682;51.114;5.882;2023-04-24T05:40:23;5.54;;;5.54;;
68700;SDS011;55682;51.114;5.882;2023-04-24T05:42:48;5.72;;;5.72;;
68700;SDS011;55682;51.114;5.882;2023-04-24T05:45:14;5.97;;;5.97;;
68700;SDS011;55682;51.114;5.882;2023-04-24T05:47:42;5.30;;;5.30;;
68700;SDS011;55682;51.114;5.882;2023-04-24T05:50:10;5.80;;;5.80;;
68700;SDS011;55682;51.114;5.882;2023-04-24T05:52:36;5.33;;;5.33;;
68700;SDS011;55682;51.114;5.882;2023-04-24T05:55:06;5.08;;;5.08;;
68700;SDS011;55682;51.114;5.882;2023-04-24T05:57:36;4.96;;;4.96;;
68700;SDS011;55682;51.114;5.882;2023-04-24T06:00:03;4.54;;;4.54;;
68700;SDS011;55682;51.114;5.882;2023-04-24T06:02:38;4.45;;;4.45;;
68700;SDS011;55682;51.114;5.882;2023-04-24T06:05:05;4.03;;;4.03;;
68700;SDS011;55682;51.114;5.882;2023-04-24T06:07:33;3.83;;;3.83;;
68700;SDS011;55682;51.114;5.882;2023-04-24T06:10:01;4.05;;;4.05;;
68700;SDS011;55682;51.114;5.882;2023-04-24T06:12:31;3.98;;;3.98;;
68700;SDS011;55682;51.114;5.882;2023-04-24T06:15:03;3.86;;;3.86;;
68700;SDS011;55682;51.114;5.882;2023-04-24T06:17:50;3.74;;;3.74;;
68700;SDS011;55682;51.114;5.882;2023-04-24T06:20:16;3.24;;;3.24;;
68700;SDS011;55682;51.114;5.882;2023-04-24T06:22:42;2.97;;;2.97;;
68700;SDS011;55682;51.114;5.882;2023-04-24T06:25:09;2.79;;;2.79;;
68700;SDS011;55682;51.114;5.882;2023-04-24T06:27:35;2.60;;;2.60;;
68700;SDS011;55682;51.114;5.882;2023-04-24T06:30:00;2.42;;;2.42;;
68700;SDS011;55682;51.114;5.882;2023-04-24T06:32:26;2.26;;;2.26;;
68700;SDS011;55682;51.114;5.882;2023-04-24T06:34:52;1.94;;;1.94;;
68700;SDS011;55682;51.114;5.882;2023-04-24T06:37:18;1.37;;;1.37;;
68700;SDS011;55682;51.114;5.882;2023-04-24T06:39:45;1.25;;;1.25;;
68700;SDS011;55682;51.114;5.882;2023-04-24T06:42:11;1.37;;;1.37;;
68700;SDS011;55682;51.114;5.882;2023-04-24T06:44:37;1.21;;;1.21;;
68700;SDS011;55682;51.114;5.882;2023-04-24T06:47:06;1.27;;;1.27;;
68700;SDS011;55682;51.114;5.882;2023-04-24T06:49:34;1.08;;;1.08;;
68700;SDS011;55682;51.114;5.882;2023-04-24T06:52:00;1.08;;;1.08;;
68700;SDS011;55682;51.114;5.882;2023-04-24T06:54:26;0.89;;;0.89;;
68700;SDS011;55682;51.114;5.882;2023-04-24T06:56:52;0.75;;;0.75;;
68700;SDS011;55682;51.114;5.882;2023-04-24T06:59:17;0.80;;;0.80;;
68700;SDS011;55682;51.114;5.882;2023-04-24T07:01:43;0.86;;;0.86;;
68700;SDS011;55682;51.114;5.882;2023-04-24T07:04:08;1.07;;;1.07;;
68700;SDS011;55682;51.114;5.882;2023-04-24T07:06:34;1.16;;;1.16;;
68700;SDS011;55682;51.114;5.882;2023-04-24T07:09:01;1.61;;;1.61;;
68700;SDS011;55682;51.114;5.882;2023-04-24T07:11:26;2.13;;;2.13;;
68700;SDS011;55682;51.114;5.882;2023-04-24T07:13:54;2.60;;;2.60;;
68700;SDS011;55682;51.114;5.882;2023-04-24T07:16:20;3.24;;;3.24;;
68700;SDS011;55682;51.114;5.882;2023-04-24T07:18:46;4.15;;;4.15;;
68700;SDS011;55682;51.114;5.882;2023-04-24T07:21:12;4.39;;;4.39;;
68700;SDS011;55682;51.114;5.882;2023-04-24T07:23:37;4.24;;;4.24;;
68700;SDS011;55682;51.114;5.882;2023-04-24T07:26:03;4.72;;;4.72;;
68700;SDS011;55682;51.114;5.882;2023-04-24T07:28:29;4.63;;;4.63;;
68700;SDS011;55682;51.114;5.882;2023-04-24T07:30:57;5.03;;;5.03;;
68700;SDS011;55682;51.114;5.882;2023-04-24T07:33:25;5.17;;;5.12;;
68700;SDS011;55682;51.114;5.882;2023-04-24T07:35:53;4.54;;;4.53;;
68700;SDS011;55682;51.114;5.882;2023-04-24T07:38:19;4.80;;;4.78;;
68700;SDS011;55682;51.114;5.882;2023-04-24T07:40:48;4.39;;;4.37;;
68700;SDS011;55682;51.114;5.882;2023-04-24T07:43:14;3.96;;;3.96;;
68700;SDS011;55682;51.114;5.882;2023-04-24T07:45:40;3.66;;;3.66;;
68700;SDS011;55682;51.114;5.882;2023-04-24T07:48:06;3.67;;;3.67;;
68700;SDS011;55682;51.114;5.882;2023-04-24T07:50:31;3.86;;;3.86;;
68700;SDS011;55682;51.114;5.882;2023-04-24T07:52:57;3.76;;;3.76;;
68700;SDS011;55682;51.114;5.882;2023-04-24T07:55:23;3.50;;;3.50;;
68700;SDS011;55682;51.114;5.882;2023-04-24T07:57:49;3.76;;;3.76;;
68700;SDS011;55682;51.114;5.882;2023-04-24T08:00:14;3.81;;;3.80;;
68700;SDS011;55682;51.114;5.882;2023-04-24T08:02:40;3.98;;;3.87;;
68700;SDS011;55682;51.114;5.882;2023-04-24T08:05:06;4.36;;;4.34;;
68700;SDS011;55682;51.114;5.882;2023-04-24T08:07:32;4.58;;;4.58;;
68700;SDS011;55682;51.114;5.882;2023-04-24T08:09:58;4.92;;;4.92;;
68700;SDS011;55682;51.114;5.882;2023-04-24T08:12:24;4.72;;;4.72;;
68700;SDS011;55682;51.114;5.882;2023-04-24T08:14:50;4.91;;;4.91;;
68700;SDS011;55682;51.114;5.882;2023-04-24T08:17:16;4.99;;;4.99;;
68700;SDS011;55682;51.114;5.882;2023-04-24T08:19:42;5.13;;;5.13;;
68700;SDS011;55682;51.114;5.882;2023-04-24T08:22:12;5.32;;;5.32;;
68700;SDS011;55682;51.114;5.882;2023-04-24T08:24:38;5.45;;;5.45;;
68700;SDS011;55682;51.114;5.882;2023-04-24T08:27:04;5.40;;;5.40;;
68700;SDS011;55682;51.114;5.882;2023-04-24T08:29:30;5.46;;;5.46;;
68700;SDS011;55682;51.114;5.882;2023-04-24T08:31:55;5.37;;;5.37;;
68700;SDS011;55682;51.114;5.882;2023-04-24T08:34:21;5.11;;;5.11;;
68700;SDS011;55682;51.114;5.882;2023-04-24T08:36:47;5.42;;;5.42;;
68700;SDS011;55682;51.114;5.882;2023-04-24T08:39:14;5.27;;;5.27;;
68700;SDS011;55682;51.114;5.882;2023-04-24T08:41:41;5.33;;;5.33;;
68700;SDS011;55682;51.114;5.882;2023-04-24T08:44:11;5.69;;;5.69;;
68700;SDS011;55682;51.114;5.882;2023-04-24T08:46:39;5.28;;;5.28;;
68700;SDS011;55682;51.114;5.882;2023-04-24T08:49:06;4.97;;;4.97;;
68700;SDS011;55682;51.114;5.882;2023-04-24T08:51:31;5.33;;;5.33;;
68700;SDS011;55682;51.114;5.882;2023-04-24T08:53:57;4.95;;;4.95;;
68700;SDS011;55682;51.114;5.882;2023-04-24T08:56:23;4.96;;;4.96;;
68700;SDS011;55682;51.114;5.882;2023-04-24T08:58:50;5.07;;;5.07;;
68700;SDS011;55682;51.114;5.882;2023-04-24T09:01:18;4.89;;;4.89;;
68700;SDS011;55682;51.114;5.882;2023-04-24T09:03:46;4.71;;;4.71;;
68700;SDS011;55682;51.114;5.882;2023-04-24T09:06:15;4.50;;;4.50;;
68700;SDS011;55682;51.114;5.882;2023-04-24T09:08:43;3.88;;;3.88;;
68700;SDS011;55682;51.114;5.882;2023-04-24T09:11:12;3.88;;;3.88;;
68700;SDS011;55682;51.114;5.882;2023-04-24T09:13:37;3.61;;;3.61;;
68700;SDS011;55682;51.114;5.882;2023-04-24T09:16:04;3.71;;;3.70;;
68700;SDS011;55682;51.114;5.882;2023-04-24T09:18:30;3.59;;;3.58;;
68700;SDS011;55682;51.114;5.882;2023-04-24T09:20:59;3.29;;;3.29;;
68700;SDS011;55682;51.114;5.882;2023-04-24T09:23:33;3.47;;;3.47;;
68700;SDS011;55682;51.114;5.882;2023-04-24T09:25:59;3.26;;;3.26;;
68700;SDS011;55682;51.114;5.882;2023-04-24T09:28:29;3.98;;;3.98;;
68700;SDS011;55682;51.114;5.882;2023-04-24T09:33:38;4.11;;;4.11;;
68700;SDS011;55682;51.114;5.882;2023-04-24T09:36:04;4.12;;;4.12;;
68700;SDS011;55682;51.114;5.882;2023-04-24T09:38:35;4.29;;;4.29;;
68700;SDS011;55682;51.114;5.882;2023-04-24T09:41:06;3.86;;;3.86;;
68700;SDS011;55682;51.114;5.882;2023-04-24T09:43:33;4.19;;;4.19;;
68700;SDS011;55682;51.114;5.882;2023-04-24T09:46:04;3.81;;;3.81;;
68700;SDS011;55682;51.114;5.882;2023-04-24T09:48:33;3.27;;;3.27;;
68700;SDS011;55682;51.114;5.882;2023-04-24T09:51:00;3.26;;;3.26;;
68700;SDS011;55682;51.114;5.882;2023-04-24T09:53:28;3.31;;;3.30;;
68700;SDS011;55682;51.114;5.882;2023-04-24T09:55:55;3.33;;;3.31;;
68700;SDS011;55682;51.114;5.882;2023-04-24T09:58:27;3.39;;;3.38;;
68700;SDS011;55682;51.114;5.882;2023-04-24T10:00:55;3.38;;;3.35;;
68700;SDS011;55682;51.114;5.882;2023-04-24T10:03:25;3.29;;;3.23;;
68700;SDS011;55682;51.114;5.882;2023-04-24T10:05:52;2.87;;;2.83;;
68700;SDS011;55682;51.114;5.882;2023-04-24T10:08:18;2.55;;;2.53;;
68700;SDS011;55682;51.114;5.882;2023-04-24T10:10:45;2.29;;;2.26;;
68700;SDS011;55682;51.114;5.882;2023-04-24T10:13:12;2.29;;;2.27;;
68700;SDS011;55682;51.114;5.882;2023-04-24T10:15:40;2.41;;;2.40;;
68700;SDS011;55682;51.114;5.882;2023-04-24T10:18:07;2.29;;;2.28;;
68700;SDS011;55682;51.114;5.882;2023-04-24T10:20:35;2.57;;;2.55;;
68700;SDS011;55682;51.114;5.882;2023-04-24T10:23:02;2.48;;;2.44;;
68700;SDS011;55682;51.114;5.882;2023-04-24T10:25:31;3.09;;;3.07;;
68700;SDS011;55682;51.114;5.882;2023-04-24T10:27:58;2.86;;;2.84;;
68700;SDS011;55682;51.114;5.882;2023-04-24T10:30:26;2.81;;;2.79;;
68700;SDS011;55682;51.114;5.882;2023-04-24T10:32:54;3.06;;;3.04;;
68700;SDS011;55682;51.114;5.882;2023-04-24T10:35:20;3.04;;;3.04;;
68700;SDS011;55682;51.114;5.882;2023-04-24T10:37:58;2.82;;;2.81;;
68700;SDS011;55682;51.114;5.882;2023-04-24T10:40:35;2.87;;;2.84;;
68700;SDS011;55682;51.114;5.882;2023-04-24T10:43:05;3.15;;;3.13;;
68700;SDS011;55682;51.114;5.882;2023-04-24T10:45:33;3.04;;;3.04;;
68700;SDS011;55682;51.114;5.882;2023-04-24T10:48:06;3.16;;;3.16;;
68700;SDS011;55682;51.114;5.882;2023-04-24T10:50:43;2.82;;;2.82;;
68700;SDS011;55682;51.114;5.882;2023-04-24T10:53:15;2.87;;;2.87;;
68700;SDS011;55682;51.114;5.882;2023-04-24T10:58:14;2.96;;;2.95;;
68700;SDS011;55682;51.114;5.882;2023-04-24T11:00:42;3.39;;;3.38;;
68700;SDS011;55682;51.114;5.882;2023-04-24T11:03:27;3.41;;;3.41;;
68700;SDS011;55682;51.114;5.882;2023-04-24T11:05:59;2.87;;;2.87;;
68700;SDS011;55682;51.114;5.882;2023-04-24T11:08:36;2.77;;;2.69;;
68700;SDS011;55682;51.114;5.882;2023-04-24T11:11:08;2.51;;;2.42;;
68700;SDS011;55682;51.114;5.882;2023-04-24T11:18:51;2.72;;;2.71;;
68700;SDS011;55682;51.114;5.882;2023-04-24T11:21:24;2.68;;;2.68;;
68700;SDS011;55682;51.114;5.882;2023-04-24T11:23:51;2.81;;;2.81;;
68700;SDS011;55682;51.114;5.882;2023-04-24T11:26:23;2.67;;;2.67;;
68700;SDS011;55682;51.114;5.882;2023-04-24T11:29:06;3.07;;;3.04;;
68700;SDS011;55682;51.114;5.882;2023-04-24T11:31:39;2.78;;;2.75;;
68700;SDS011;55682;51.114;5.882;2023-04-24T11:34:10;2.49;;;2.48;;
68700;SDS011;55682;51.114;5.882;2023-04-24T11:36:39;2.70;;;2.70;;
68700;SDS011;55682;51.114;5.882;2023-04-24T11:39:05;2.77;;;2.74;;
68700;SDS011;55682;51.114;5.882;2023-04-24T11:41:32;2.53;;;2.52;;
68700;SDS011;55682;51.114;5.882;2023-04-24T11:43:58;2.37;;;2.37;;
68700;SDS011;55682;51.114;5.882;2023-04-24T11:46:27;2.44;;;2.44;;
68700;SDS011;55682;51.114;5.882;2023-04-24T11:48:53;2.42;;;2.40;;
68700;SDS011;55682;51.114;5.882;2023-04-24T11:51:19;2.30;;;2.27;;
68700;SDS011;55682;51.114;5.882;2023-04-24T11:53:45;2.24;;;2.22;;
68700;SDS011;55682;51.114;5.882;2023-04-24T11:56:10;2.35;;;2.33;;
68700;SDS011;55682;51.114;5.882;2023-04-24T11:58:37;2.37;;;2.34;;
68700;SDS011;55682;51.114;5.882;2023-04-24T12:01:04;2.16;;;2.14;;
68700;SDS011;55682;51.114;5.882;2023-04-24T12:03:30;2.48;;;2.46;;
68700;SDS011;55682;51.114;5.882;2023-04-24T12:06:06;2.26;;;2.23;;
68700;SDS011;55682;51.114;5.882;2023-04-24T12:08:32;2.22;;;2.20;;
68700;SDS011;55682;51.114;5.882;2023-04-24T12:11:02;2.44;;;2.42;;
68700;SDS011;55682;51.114;5.882;2023-04-24T12:13:32;2.50;;;2.50;;
68700;SDS011;55682;51.114;5.882;2023-04-24T12:15:59;2.25;;;2.25;;
68700;SDS011;55682;51.114;5.882;2023-04-24T12:18:25;2.43;;;2.41;;
68700;SDS011;55682;51.114;5.882;2023-04-24T12:20:51;2.59;;;2.58;;
68700;SDS011;55682;51.114;5.882;2023-04-24T12:23:28;2.71;;;2.71;;
68700;SDS011;55682;51.114;5.882;2023-04-24T12:26:04;2.63;;;2.63;;
68700;SDS011;55682;51.114;5.882;2023-04-24T12:28:36;2.98;;;2.98;;
68700;SDS011;55682;51.114;5.882;2023-04-24T12:31:03;2.61;;;2.61;;
68700;SDS011;55682;51.114;5.882;2023-04-24T12:33:32;2.73;;;2.73;;
68700;SDS011;55682;51.114;5.882;2023-04-24T12:35:59;2.76;;;2.76;;
68700;SDS011;55682;51.114;5.882;2023-04-24T12:38:26;2.57;;;2.57;;
68700;SDS011;55682;51.114;5.882;2023-04-24T12:41:01;2.70;;;2.70;;
68700;SDS011;55682;51.114;5.882;2023-04-24T12:43:29;2.80;;;2.80;;
68700;SDS011;55682;51.114;5.882;2023-04-24T12:45:54;2.78;;;2.78;;
68700;SDS011;55682;51.114;5.882;2023-04-24T12:48:20;2.85;;;2.85;;
68700;SDS011;55682;51.114;5.882;2023-04-24T12:50:47;2.71;;;2.71;;
68700;SDS011;55682;51.114;5.882;2023-04-24T12:53:13;2.82;;;2.82;;
68700;SDS011;55682;51.114;5.882;2023-04-24T12:55:39;2.86;;;2.86;;
68700;SDS011;55682;51.114;5.882;2023-04-24T12:58:05;2.80;;;2.80;;
68700;SDS011;55682;51.114;5.882;2023-04-24T13:00:31;2.71;;;2.71;;
68700;SDS011;55682;51.114;5.882;2023-04-24T13:02:56;2.91;;;2.91;;
68700;SDS011;55682;51.114;5.882;2023-04-24T13:05:22;2.75;;;2.75;;
68700;SDS011;55682;51.114;5.882;2023-04-24T13:07:48;2.59;;;2.59;;
68700;SDS011;55682;51.114;5.882;2023-04-24T13:10:13;2.67;;;2.67;;
68700;SDS011;55682;51.114;5.882;2023-04-24T13:12:39;2.51;;;2.51;;
68700;SDS011;55682;51.114;5.882;2023-04-24T13:15:05;2.36;;;2.36;;
68700;SDS011;55682;51.114;5.882;2023-04-24T13:17:32;2.57;;;2.57;;
68700;SDS011;55682;51.114;5.882;2023-04-24T13:19:58;2.40;;;2.40;;
68700;SDS011;55682;51.114;5.882;2023-04-24T13:22:24;2.53;;;2.53;;
68700;SDS011;55682;51.114;5.882;2023-04-24T13:24:50;2.43;;;2.43;;
68700;SDS011;55682;51.114;5.882;2023-04-24T13:27:16;2.66;;;2.66;;
68700;SDS011;55682;51.114;5.882;2023-04-24T13:29:42;2.45;;;2.45;;
68700;SDS011;55682;51.114;5.882;2023-04-24T13:32:08;2.56;;;2.56;;
68700;SDS011;55682;51.114;5.882;2023-04-24T13:34:34;2.44;;;2.44;;
68700;SDS011;55682;51.114;5.882;2023-04-24T13:37:00;2.58;;;2.58;;
68700;SDS011;55682;51.114;5.882;2023-04-24T13:39:26;2.34;;;2.34;;
68700;SDS011;55682;51.114;5.882;2023-04-24T13:41:52;2.05;;;2.05;;
68700;SDS011;55682;51.114;5.882;2023-04-24T13:44:18;2.11;;;2.11;;
68700;SDS011;55682;51.114;5.882;2023-04-24T13:46:46;2.28;;;2.28;;
68700;SDS011;55682;51.114;5.882;2023-04-24T13:49:13;2.16;;;2.16;;
68700;SDS011;55682;51.114;5.882;2023-04-24T13:51:39;2.19;;;2.19;;
68700;SDS011;55682;51.114;5.882;2023-04-24T13:54:06;1.86;;;1.86;;
68700;SDS011;55682;51.114;5.882;2023-04-24T13:56:32;2.07;;;2.07;;
68700;SDS011;55682;51.114;5.882;2023-04-24T13:58:58;1.95;;;1.95;;
68700;SDS011;55682;51.114;5.882;2023-04-24T14:01:23;2.12;;;2.12;;
68700;SDS011;55682;51.114;5.882;2023-04-24T14:03:50;2.10;;;2.10;;
68700;SDS011;55682;51.114;5.882;2023-04-24T14:06:20;2.24;;;2.24;;
68700;SDS011;55682;51.114;5.882;2023-04-24T14:08:46;2.19;;;2.19;;
68700;SDS011;55682;51.114;5.882;2023-04-24T14:11:12;2.45;;;2.45;;
68700;SDS011;55682;51.114;5.882;2023-04-24T14:13:39;2.25;;;2.25;;
68700;SDS011;55682;51.114;5.882;2023-04-24T14:16:06;1.98;;;1.98;;
68700;SDS011;55682;51.114;5.882;2023-04-24T14:18:32;2.27;;;2.27;;
68700;SDS011;55682;51.114;5.882;2023-04-24T14:20:58;2.11;;;2.11;;
68700;SDS011;55682;51.114;5.882;2023-04-24T14:23:24;2.20;;;2.20;;
68700;SDS011;55682;51.114;5.882;2023-04-24T14:25:49;2.16;;;2.16;;
68700;SDS011;55682;51.114;5.882;2023-04-24T14:28:20;2.22;;;2.22;;
68700;SDS011;55682;51.114;5.882;2023-04-24T14:30:46;2.25;;;2.25;;
68700;SDS011;55682;51.114;5.882;2023-04-24T14:33:13;2.12;;;2.12;;
68700;SDS011;55682;51.114;5.882;2023-04-24T14:35:42;2.37;;;2.37;;
68700;SDS011;55682;51.114;5.882;2023-04-24T14:38:08;2.62;;;2.62;;
68700;SDS011;55682;51.114;5.882;2023-04-24T14:40:34;2.33;;;2.33;;
68700;SDS011;55682;51.114;5.882;2023-04-24T14:43:00;2.48;;;2.48;;
68700;SDS011;55682;51.114;5.882;2023-04-24T14:45:26;2.55;;;2.55;;
68700;SDS011;55682;51.114;5.882;2023-04-24T14:47:52;2.41;;;2.41;;
68700;SDS011;55682;51.114;5.882;2023-04-24T14:50:18;2.36;;;2.36;;
68700;SDS011;55682;51.114;5.882;2023-04-24T14:52:44;2.20;;;2.20;;
68700;SDS011;55682;51.114;5.882;2023-04-24T14:55:10;2.47;;;2.47;;
68700;SDS011;55682;51.114;5.882;2023-04-24T14:57:36;2.49;;;2.49;;